Aviation Digital Data Service (ADDS)

Output produced by METARs form (0134 UTC 23 November 2017)
found at http://www.aviationweather.gov/adds/metars/
 
FYWH 230100Z AUTO 18006KT //// // ////// 14/M02 Q1021
TAF FYWH 221000Z 2212/2318 10005KT CAVOK 
     BECMG 2213/2215 SCT050 
     BECMG 2216/2218 25014KT 
     BECMG 2300/2301 06004KT NSC 
     BECMG 2310/2312 35005KT SCT050 
       
FYKT 230100Z AUTO 00000KT //// // ////// 15/M03 Q1019
TAF FYKT 221000Z 2212/2318 19007KT CAVOK 
     BECMG 2309/2311 08003KT 
       
FYLZ 230100Z AUTO 18009KT //// // ////// 14/05 Q1014
FYML 230100Z AUTO 15002KT //// // ////// 20/M07 Q1020
FYRU 230100Z AUTO 00000KT //// // ////// 22/15 Q1018
FYWB 230100Z AUTO 00000KT //// // ////// 11/07 Q1014
TAF FYWB 221000Z 2212/2318 00000KT CAVOK 
     BECMG 2213/2215 20018KT 
     BECMG 2219/2221 20008KT 9999 BKN015 
     TEMPO 2300/2303 06004KT 0900 FG OVC010 
     BECMG 2309/2311 29005KT 9999 NSW BKN015